Terminal Aerodrome Forecast
Issued by NWS

Home | Current Version | Previous Version | Text Only | Print | Product List | Glossary On
Versions: 1 2 3 4 5 6 7 8 9 10 11 12 13 14 15 16 17
000
FTAK31 PAFA 250532
TAFAFA
TAF
PAFA 250532Z 2506/2612 25009KT P6SM VCSH FEW060 BKN090 BKN110
     FM250800 25006KT 6SM BR SCT035 BKN050 BKN070
     FM251500 27006KT P6SM VCSH SCT035 BKN050 BKN100
     FM252100 24006KT P6SM -SHRA BKN035 OVC050
     FM260600 23004KT P6SM VCSH OVC050=

USA.gov is the U.S. government's official web portal to all federal, state and local government web resources and services.